createdAt,value
2018-07-29T00:01:18.970Z,21.40
2018-07-29T00:03:51.431Z,21.40
2018-07-29T00:06:23.864Z,21.40
2018-07-29T00:08:56.327Z,21.40
2018-07-29T00:11:28.726Z,21.40
2018-07-29T00:16:33.668Z,21.30
2018-07-29T00:19:06.495Z,21.30
2018-07-29T00:21:38.928Z,21.30
2018-07-29T00:24:11.361Z,21.30
2018-07-29T00:26:43.806Z,21.30
2018-07-29T00:29:16.274Z,21.20
2018-07-29T00:31:48.728Z,21.20
2018-07-29T00:34:21.256Z,21.10
2018-07-29T00:36:53.701Z,21.10
2018-07-29T00:39:26.146Z,21.10
2018-07-29T00:41:58.558Z,21.10
2018-07-29T00:44:31.296Z,21.00
2018-07-29T00:47:04.795Z,21.00
2018-07-29T00:49:37.244Z,21.00
2018-07-29T00:52:09.665Z,20.90
2018-07-29T00:54:42.095Z,21.00
2018-07-29T00:57:14.547Z,21.00
2018-07-29T00:59:47.275Z,21.00
2018-07-29T01:02:19.745Z,20.90
2018-07-29T01:04:52.221Z,20.90
2018-07-29T01:07:25.015Z,20.90
2018-07-29T01:09:57.465Z,20.80
2018-07-29T01:12:30.134Z,20.80
2018-07-29T01:15:02.570Z,20.80
2018-07-29T01:17:35.013Z,20.80
2018-07-29T01:20:07.452Z,20.80
2018-07-29T01:22:40.143Z,20.80
2018-07-29T01:25:12.570Z,20.70
2018-07-29T01:27:45.047Z,20.70
2018-07-29T01:30:17.475Z,20.70
2018-07-29T01:32:50.250Z,20.80
2018-07-29T01:35:22.696Z,20.70
2018-07-29T01:37:55.514Z,20.70
2018-07-29T01:40:27.942Z,20.70
2018-07-29T01:43:00.644Z,20.70
2018-07-29T01:45:33.074Z,20.60
2018-07-29T01:48:06.057Z,20.60
2018-07-29T01:50:38.801Z,20.60
2018-07-29T01:53:11.283Z,20.60
2018-07-29T01:55:50.925Z,20.60
2018-07-29T01:58:23.354Z,20.50
2018-07-29T02:00:56.007Z,20.50
2018-07-29T02:03:28.485Z,20.50
2018-07-29T02:06:00.925Z,20.60
2018-07-29T02:08:33.362Z,20.60
2018-07-29T02:11:06.259Z,20.60
2018-07-29T02:13:38.719Z,20.60
2018-07-29T02:16:11.414Z,20.50
2018-07-29T02:18:43.877Z,20.60
2018-07-29T02:21:16.319Z,20.50
2018-07-29T02:23:48.774Z,20.60
2018-07-29T02:26:21.209Z,20.60
2018-07-29T02:31:25.909Z,20.60
2018-07-29T02:33:58.367Z,20.60
2018-07-29T02:36:30.792Z,20.50
2018-07-29T02:39:04.863Z,20.50
2018-07-29T02:41:37.600Z,20.50
2018-07-29T02:44:10.497Z,20.50
2018-07-29T02:46:42.958Z,20.50
2018-07-29T02:51:47.654Z,20.50
2018-07-29T02:54:20.094Z,20.50
2018-07-29T02:56:52.515Z,20.50
2018-07-29T02:59:25.057Z,20.50
2018-07-29T03:01:57.433Z,20.50
2018-07-29T03:04:30.098Z,20.50
2018-07-29T03:07:03.015Z,20.50
2018-07-29T03:09:35.475Z,20.50
2018-07-29T03:12:07.895Z,20.50
2018-07-29T03:14:40.631Z,20.50
2018-07-29T03:17:13.082Z,20.50
2018-07-29T03:19:45.947Z,20.50
2018-07-29T03:22:18.378Z,20.50
2018-07-29T03:24:51.516Z,20.50
2018-07-29T03:27:24.075Z,20.50
2018-07-29T03:29:56.743Z,20.50
2018-07-29T03:32:29.234Z,20.50
2018-07-29T03:35:02.632Z,20.50
2018-07-29T03:37:35.076Z,20.50
2018-07-29T03:40:07.503Z,20.50
2018-07-29T03:42:39.928Z,20.50
2018-07-29T03:45:12.372Z,20.40
2018-07-29T03:47:44.814Z,20.40
2018-07-29T03:50:17.239Z,20.40
2018-07-29T03:52:49.650Z,20.40
2018-07-29T03:55:22.285Z,20.50
2018-07-29T03:57:54.697Z,20.50
2018-07-29T04:03:06.038Z,20.60
2018-07-29T04:05:38.507Z,20.50
2018-07-29T04:08:11.330Z,20.50
2018-07-29T04:10:43.770Z,20.50
2018-07-29T04:13:16.510Z,20.40
2018-07-29T04:15:48.948Z,20.30
2018-07-29T04:18:21.380Z,20.30
2018-07-29T04:20:53.865Z,20.40
2018-07-29T04:23:26.347Z,20.50
2018-07-29T04:25:58.815Z,20.50
2018-07-29T04:28:31.250Z,20.50
2018-07-29T04:31:03.706Z,20.50
2018-07-29T04:36:08.404Z,20.50
2018-07-29T04:38:41.531Z,20.50
2018-07-29T04:41:13.977Z,20.40
2018-07-29T04:43:46.675Z,20.40
2018-07-29T04:46:19.170Z,20.40
2018-07-29T04:48:51.618Z,20.40
2018-07-29T04:51:24.117Z,20.30
2018-07-29T04:53:56.549Z,20.40
2018-07-29T04:56:29.006Z,20.40
2018-07-29T04:59:01.472Z,20.40
2018-07-29T05:01:34.114Z,20.40
2018-07-29T05:04:06.577Z,20.50
2018-07-29T05:06:39.016Z,20.60
2018-07-29T05:09:11.661Z,20.60
2018-07-29T05:11:44.091Z,20.70
2018-07-29T05:14:16.766Z,20.80
2018-07-29T05:16:49.585Z,20.90
2018-07-29T05:19:22.331Z,21.00
2018-07-29T05:21:54.822Z,21.20
2018-07-29T05:24:27.235Z,21.30
2018-07-29T05:26:59.690Z,21.40
2018-07-29T05:29:32.151Z,21.50
2018-07-29T05:32:04.826Z,21.50
2018-07-29T05:34:38.065Z,21.50
2018-07-29T05:37:10.539Z,21.60
2018-07-29T05:39:43.586Z,21.60
2018-07-29T05:44:48.357Z,21.50
2018-07-29T05:47:20.794Z,21.60
2018-07-29T05:49:53.578Z,21.60
2018-07-29T05:52:26.022Z,21.70
2018-07-29T05:54:58.698Z,21.80
2018-07-29T05:57:31.140Z,22.00
2018-07-29T06:00:05.526Z,22.20
2018-07-29T06:02:38.011Z,22.50
2018-07-29T06:05:10.488Z,22.80
2018-07-29T06:07:42.926Z,23.20
2018-07-29T06:10:15.369Z,23.80
2018-07-29T06:12:47.834Z,24.60
2018-07-29T06:15:20.290Z,25.10
2018-07-29T06:17:52.740Z,25.30
2018-07-29T06:20:25.523Z,25.30
2018-07-29T06:22:58.477Z,25.10
2018-07-29T06:25:31.679Z,24.90
2018-07-29T06:28:04.058Z,24.60
2018-07-29T06:33:09.012Z,24.30
2018-07-29T06:35:41.438Z,24.10
2018-07-29T06:38:13.876Z,24.10
2018-07-29T06:40:46.357Z,24.20
2018-07-29T06:43:18.815Z,24.60
2018-07-29T06:45:52.091Z,24.80
2018-07-29T06:48:24.905Z,25.00
2018-07-29T06:50:57.335Z,25.00
2018-07-29T06:53:30.758Z,25.10
2018-07-29T06:56:03.282Z,25.10
2018-07-29T06:58:35.731Z,24.90
2018-07-29T07:01:08.578Z,24.80
2018-07-29T07:03:41.017Z,24.70
2018-07-29T07:06:13.455Z,24.60
2018-07-29T07:08:46.107Z,24.60
2018-07-29T07:11:18.873Z,24.50
2018-07-29T07:13:51.303Z,24.60
2018-07-29T07:16:23.796Z,24.60
2018-07-29T07:18:56.471Z,24.70
2018-07-29T07:21:29.064Z,24.80
2018-07-29T07:24:01.645Z,24.90
2018-07-29T07:26:34.275Z,25.00
2018-07-29T07:29:06.723Z,25.10
2018-07-29T07:31:39.274Z,25.20
2018-07-29T07:34:11.693Z,25.40
2018-07-29T07:36:44.142Z,25.50
2018-07-29T07:39:16.958Z,25.60
2018-07-29T07:41:49.714Z,25.60
2018-07-29T07:44:22.136Z,25.60
2018-07-29T07:46:54.917Z,25.80
2018-07-29T07:49:27.331Z,25.90
2018-07-29T07:51:59.828Z,26.10
2018-07-29T07:54:32.259Z,26.30
2018-07-29T07:57:05.061Z,26.30
2018-07-29T07:59:37.483Z,26.30
2018-07-29T08:02:09.986Z,26.30
2018-07-29T08:04:42.663Z,26.30
2018-07-29T08:07:15.103Z,26.50
2018-07-29T08:09:47.641Z,26.60
2018-07-29T08:12:20.071Z,26.70
2018-07-29T08:14:52.505Z,26.70
2018-07-29T08:17:25.223Z,26.90
2018-07-29T08:19:57.664Z,27.10
2018-07-29T08:22:30.302Z,27.00
2018-07-29T08:25:02.749Z,27.10
2018-07-29T08:27:35.175Z,27.30
2018-07-29T08:30:07.614Z,27.90
2018-07-29T08:32:40.639Z,28.00
2018-07-29T08:35:13.086Z,29.00
2018-07-29T08:37:45.519Z,30.00
2018-07-29T08:40:18.011Z,30.60
2018-07-29T08:42:50.479Z,30.80
2018-07-29T08:45:22.928Z,31.30
2018-07-29T08:47:55.579Z,31.80
2018-07-29T08:50:28.675Z,32.00
2018-07-29T08:53:02.051Z,32.10
2018-07-29T08:55:34.494Z,32.30
2018-07-29T08:58:06.923Z,32.40
2018-07-29T09:00:39.678Z,32.80
2018-07-29T09:03:12.154Z,33.30
2018-07-29T09:05:44.938Z,33.70
2018-07-29T09:08:17.830Z,34.20
2018-07-29T09:10:50.293Z,34.50
2018-07-29T09:13:22.722Z,34.50
2018-07-29T09:15:55.203Z,34.20
2018-07-29T09:18:27.598Z,33.80
2018-07-29T09:21:00.058Z,33.30
2018-07-29T09:23:32.547Z,32.80
2018-07-29T09:26:05.076Z,32.50
2018-07-29T09:28:37.515Z,32.20
2018-07-29T09:31:09.975Z,31.90
2018-07-29T09:33:42.870Z,31.70
2018-07-29T09:38:47.554Z,31.70
2018-07-29T09:41:19.983Z,31.60
2018-07-29T09:43:52.438Z,31.40
2018-07-29T09:46:24.853Z,31.20
2018-07-29T09:48:57.306Z,31.20
2018-07-29T09:51:30.410Z,31.20
2018-07-29T09:54:02.842Z,31.30
2018-07-29T09:56:35.275Z,31.30
2018-07-29T09:59:07.707Z,31.50
2018-07-29T10:01:40.363Z,31.50
2018-07-29T10:04:12.876Z,31.50
2018-07-29T10:06:45.305Z,31.30
2018-07-29T10:09:32.423Z,31.20
2018-07-29T10:12:04.843Z,31.20
2018-07-29T10:14:37.334Z,31.00
2018-07-29T10:17:16.414Z,30.70
2018-07-29T10:19:48.856Z,30.40
2018-07-29T10:22:21.288Z,30.30
2018-07-29T10:24:54.372Z,30.10
2018-07-29T10:27:27.348Z,30.00
2018-07-29T10:32:32.481Z,29.80
2018-07-29T10:35:05.399Z,29.80
2018-07-29T10:37:37.858Z,29.70
2018-07-29T10:40:10.531Z,29.60
2018-07-29T10:42:42.959Z,29.50
2018-07-29T10:45:15.417Z,29.50
2018-07-29T10:47:47.830Z,29.40
2018-07-29T10:50:20.848Z,29.30
2018-07-29T10:52:53.604Z,29.20
2018-07-29T10:55:26.319Z,29.10
2018-07-29T10:57:58.782Z,29.00
2018-07-29T11:00:31.411Z,28.90
2018-07-29T11:03:03.854Z,29.00
2018-07-29T11:05:36.298Z,28.90
2018-07-29T11:08:08.727Z,28.90
2018-07-29T11:10:41.972Z,28.90
2018-07-29T11:13:14.397Z,28.90
2018-07-29T11:15:46.834Z,28.80
2018-07-29T11:18:19.294Z,28.90
2018-07-29T11:20:51.765Z,29.00
2018-07-29T11:23:24.958Z,29.10
2018-07-29T11:25:57.403Z,29.30
2018-07-29T11:28:29.837Z,29.40
2018-07-29T11:31:02.241Z,29.50
2018-07-29T11:33:34.676Z,29.60
2018-07-29T11:36:07.177Z,29.70
2018-07-29T11:38:39.547Z,29.80
2018-07-29T11:41:12.243Z,29.90
2018-07-29T11:43:45.049Z,29.80
2018-07-29T11:46:17.506Z,29.70
2018-07-29T11:48:49.962Z,29.80
2018-07-29T11:51:22.387Z,29.80
2018-07-29T11:53:54.850Z,29.90
2018-07-29T11:56:27.542Z,29.90
2018-07-29T11:58:59.986Z,29.90
2018-07-29T12:01:32.418Z,29.90
2018-07-29T12:04:04.966Z,29.90
2018-07-29T12:06:37.352Z,29.90
2018-07-29T12:09:09.796Z,30.00
2018-07-29T12:14:14.472Z,29.70
2018-07-29T12:16:47.115Z,29.60
2018-07-29T12:19:19.794Z,29.40
2018-07-29T12:24:24.459Z,29.30
2018-07-29T12:26:56.891Z,29.30
2018-07-29T12:29:29.317Z,29.40
2018-07-29T12:32:02.391Z,29.50
2018-07-29T12:34:34.814Z,29.60
2018-07-29T12:37:07.393Z,29.60
2018-07-29T12:39:40.101Z,29.70
2018-07-29T12:42:13.085Z,29.70
2018-07-29T12:44:45.505Z,29.70
2018-07-29T12:47:17.928Z,29.70
2018-07-29T12:49:50.404Z,29.70
2018-07-29T12:52:22.813Z,29.60
2018-07-29T12:54:55.242Z,29.70
2018-07-29T12:57:27.990Z,29.80
2018-07-29T13:00:00.431Z,30.00
2018-07-29T13:02:33.178Z,30.30
2018-07-29T13:05:06.224Z,30.60
2018-07-29T13:07:38.631Z,30.70
2018-07-29T13:10:11.326Z,30.80
2018-07-29T13:12:43.720Z,30.90
2018-07-29T13:15:16.139Z,31.00
2018-07-29T13:17:48.549Z,31.00
2018-07-29T13:20:20.965Z,31.00
2018-07-29T13:22:53.806Z,31.10
2018-07-29T13:25:26.333Z,31.10
2018-07-29T13:27:58.690Z,31.20
2018-07-29T13:30:31.419Z,31.30
2018-07-29T13:33:03.845Z,31.40
2018-07-29T13:35:36.253Z,31.40
2018-07-29T13:38:08.662Z,31.40
2018-07-29T13:40:41.096Z,31.30
2018-07-29T13:45:46.066Z,31.40
2018-07-29T13:48:18.465Z,31.50
2018-07-29T13:50:50.889Z,31.60
2018-07-29T13:53:23.290Z,31.60
2018-07-29T13:55:56.001Z,31.80
2018-07-29T13:58:28.394Z,31.90
2018-07-29T14:01:00.819Z,31.90
2018-07-29T14:03:33.238Z,32.00
2018-07-29T14:06:05.739Z,32.20
2018-07-29T14:08:38.107Z,32.20
2018-07-29T14:11:10.509Z,32.10
2018-07-29T14:13:43.253Z,31.90
2018-07-29T14:16:15.689Z,31.90
2018-07-29T14:18:48.107Z,31.90
2018-07-29T14:21:20.521Z,32.00
2018-07-29T14:23:52.917Z,31.90
2018-07-29T14:26:25.553Z,31.90
2018-07-29T14:28:57.949Z,31.90
2018-07-29T14:31:30.661Z,31.80
2018-07-29T14:34:03.066Z,31.70
2018-07-29T14:36:35.717Z,31.70
2018-07-29T14:39:08.474Z,31.60
2018-07-29T14:41:40.882Z,31.60
2018-07-29T14:44:13.315Z,31.60
2018-07-29T14:46:45.685Z,31.60
2018-07-29T14:49:18.709Z,31.60
2018-07-29T14:51:51.127Z,31.70
2018-07-29T14:54:24.057Z,31.70
2018-07-29T14:56:56.737Z,31.70
2018-07-29T14:59:29.421Z,31.70
2018-07-29T15:02:01.861Z,31.70
2018-07-29T15:04:34.560Z,31.70
2018-07-29T15:07:07.032Z,31.60
2018-07-29T15:09:39.428Z,31.70
2018-07-29T15:12:11.857Z,31.60
2018-07-29T15:14:44.269Z,31.50
2018-07-29T15:17:16.928Z,31.50
2018-07-29T15:19:49.335Z,31.60
2018-07-29T15:22:21.829Z,31.70
2018-07-29T15:24:54.241Z,31.80
2018-07-29T15:27:26.649Z,31.80
2018-07-29T15:29:59.064Z,31.70
2018-07-29T15:32:31.512Z,31.60
2018-07-29T15:35:04.546Z,31.70
2018-07-29T15:37:36.966Z,31.70
2018-07-29T15:40:09.436Z,31.80
2018-07-29T15:42:42.122Z,31.80
2018-07-29T15:45:14.797Z,31.90
2018-07-29T15:47:47.225Z,31.80
2018-07-29T15:50:19.622Z,31.80
2018-07-29T15:52:52.321Z,31.90
2018-07-29T15:55:24.740Z,31.90
2018-07-29T15:57:57.162Z,31.90
2018-07-29T16:00:29.588Z,31.80
2018-07-29T16:03:02.310Z,31.80
2018-07-29T16:05:35.409Z,31.90
2018-07-29T16:08:07.842Z,31.90
2018-07-29T16:10:40.229Z,32.00
2018-07-29T16:13:12.918Z,31.90
2018-07-29T16:15:45.355Z,31.80
2018-07-29T16:18:18.062Z,31.70
2018-07-29T16:20:50.465Z,31.70
2018-07-29T16:23:22.874Z,31.60
2018-07-29T16:25:55.262Z,31.50
2018-07-29T16:28:27.953Z,31.50
2018-07-29T16:31:00.354Z,31.40
2018-07-29T16:33:32.852Z,31.30
2018-07-29T16:36:05.279Z,31.20
2018-07-29T16:38:37.685Z,31.10
2018-07-29T16:41:10.094Z,31.00
2018-07-29T16:43:42.733Z,31.00
2018-07-29T16:46:15.171Z,30.90
2018-07-29T16:48:47.581Z,30.90
2018-07-29T16:51:20.557Z,30.90
2018-07-29T16:53:52.989Z,30.90
2018-07-29T16:56:25.381Z,30.90
2018-07-29T16:58:58.101Z,31.00
2018-07-29T17:01:30.498Z,31.10
2018-07-29T17:04:03.144Z,31.10
2018-07-29T17:06:35.561Z,31.10
2018-07-29T17:09:08.264Z,31.10
2018-07-29T17:11:40.718Z,31.10
2018-07-29T17:14:13.112Z,31.10
2018-07-29T17:16:45.536Z,31.00
2018-07-29T17:19:17.940Z,30.90
2018-07-29T17:21:50.621Z,30.80
2018-07-29T17:24:23.027Z,30.70
2018-07-29T17:26:55.437Z,30.70
2018-07-29T17:29:27.852Z,30.60
2018-07-29T17:32:00.248Z,30.50
2018-07-29T17:34:32.669Z,30.30
2018-07-29T17:37:05.132Z,30.30
2018-07-29T17:39:37.854Z,30.20
2018-07-29T17:42:10.534Z,30.10
2018-07-29T17:44:43.289Z,30.10
2018-07-29T17:47:15.774Z,30.00
2018-07-29T17:49:48.511Z,30.00
2018-07-29T17:52:20.909Z,30.00
2018-07-29T17:54:53.322Z,30.00
2018-07-29T17:57:25.748Z,30.10
2018-07-29T17:59:58.161Z,30.00
2018-07-29T18:02:30.834Z,30.00
2018-07-29T18:05:03.303Z,30.00
2018-07-29T18:07:35.769Z,29.90
2018-07-29T18:10:08.372Z,29.80
2018-07-29T18:12:40.809Z,29.80
2018-07-29T18:15:13.213Z,29.80
2018-07-29T18:17:45.642Z,29.70
2018-07-29T18:20:18.050Z,29.60
2018-07-29T18:22:50.985Z,29.60
2018-07-29T18:25:23.357Z,29.50
2018-07-29T18:27:55.820Z,29.30
2018-07-29T18:30:28.210Z,29.20
2018-07-29T18:33:00.672Z,29.10
2018-07-29T18:35:33.095Z,29.00
2018-07-29T18:38:05.539Z,28.90
2018-07-29T18:40:38.001Z,28.90
2018-07-29T18:43:10.422Z,28.80
2018-07-29T18:45:42.847Z,28.70
2018-07-29T18:48:15.605Z,28.70
2018-07-29T18:50:48.478Z,28.60
2018-07-29T18:53:21.158Z,28.60
2018-07-29T18:55:53.648Z,28.50
2018-07-29T18:58:26.320Z,28.40
2018-07-29T19:00:59.160Z,28.30
2018-07-29T19:03:31.569Z,28.20
2018-07-29T19:06:04.008Z,28.10
2018-07-29T19:08:36.417Z,28.10
2018-07-29T19:11:08.925Z,28.00
2018-07-29T19:13:41.539Z,27.90
2018-07-29T19:16:13.997Z,27.90
2018-07-29T19:18:46.562Z,27.80
2018-07-29T19:21:19.214Z,27.70
2018-07-29T19:23:51.691Z,27.70
2018-07-29T19:26:24.411Z,27.60
2018-07-29T19:28:56.932Z,27.60
2018-07-29T19:31:29.600Z,27.50
2018-07-29T19:34:02.112Z,27.50
2018-07-29T19:36:34.514Z,27.40
2018-07-29T19:39:07.719Z,27.40
2018-07-29T19:41:40.331Z,27.30
2018-07-29T19:44:13.149Z,27.30
2018-07-29T19:46:45.556Z,27.30
2018-07-29T19:49:17.953Z,27.30
2018-07-29T19:51:50.694Z,27.30
2018-07-29T19:54:23.457Z,27.30
2018-07-29T19:56:55.849Z,27.30
2018-07-29T19:59:28.257Z,27.30
2018-07-29T20:02:00.653Z,27.30
2018-07-29T20:04:33.117Z,27.30
2018-07-29T20:07:05.530Z,27.20
2018-07-29T20:09:37.945Z,27.20
2018-07-29T20:12:10.372Z,27.10
2018-07-29T20:14:42.778Z,27.10
2018-07-29T20:17:15.184Z,27.00
2018-07-29T20:19:47.637Z,26.90
2018-07-29T20:22:20.087Z,26.90
2018-07-29T20:24:52.873Z,26.80
2018-07-29T20:27:25.276Z,26.80
2018-07-29T20:29:57.682Z,26.70
2018-07-29T20:32:30.088Z,26.70
2018-07-29T20:35:02.487Z,26.70
2018-07-29T20:37:34.886Z,26.60
2018-07-29T20:40:07.305Z,26.60
2018-07-29T20:42:39.960Z,26.50
2018-07-29T20:45:12.706Z,26.50
2018-07-29T20:47:45.086Z,26.40
2018-07-29T20:50:17.507Z,26.40
2018-07-29T20:52:50.078Z,26.30
2018-07-29T20:55:22.518Z,26.30
2018-07-29T20:57:55.150Z,26.30
2018-07-29T21:00:27.578Z,26.20
2018-07-29T21:02:59.999Z,26.20
2018-07-29T21:05:32.422Z,26.20
2018-07-29T21:08:04.829Z,26.20
2018-07-29T21:13:09.465Z,26.10
2018-07-29T21:15:41.872Z,26.10
2018-07-29T21:18:14.492Z,26.00
2018-07-29T21:20:47.281Z,26.00
2018-07-29T21:23:19.951Z,26.00
2018-07-29T21:25:52.625Z,26.00
2018-07-29T21:28:25.053Z,26.00
2018-07-29T21:30:57.785Z,25.90
2018-07-29T21:33:30.400Z,25.90
2018-07-29T21:36:02.798Z,25.90
2018-07-29T21:38:35.206Z,25.90
2018-07-29T21:41:07.754Z,25.90
2018-07-29T21:43:40.299Z,25.90
2018-07-29T21:46:13.184Z,25.90
2018-07-29T21:48:45.577Z,25.90
2018-07-29T21:51:18.230Z,25.90
2018-07-29T21:53:50.631Z,25.90
2018-07-29T21:56:23.047Z,25.90
2018-07-29T21:58:55.453Z,25.90
2018-07-29T22:01:27.865Z,25.90
2018-07-29T22:04:00.566Z,25.90
2018-07-29T22:06:32.985Z,25.90
2018-07-29T22:09:07.454Z,25.90
2018-07-29T22:11:40.174Z,25.90
2018-07-29T22:14:12.922Z,25.90
2018-07-29T22:16:45.322Z,25.90
2018-07-29T22:19:17.748Z,25.90
2018-07-29T22:21:50.176Z,25.90
2018-07-29T22:24:22.853Z,25.90
2018-07-29T22:26:55.290Z,25.90
2018-07-29T22:29:27.970Z,25.90
2018-07-29T22:32:00.389Z,25.90
2018-07-29T22:34:32.791Z,25.80
2018-07-29T22:37:05.947Z,25.80
2018-07-29T22:39:38.695Z,25.80
2018-07-29T22:42:11.093Z,25.80
2018-07-29T22:44:43.770Z,25.80
2018-07-29T22:47:16.169Z,25.80
2018-07-29T22:49:48.576Z,25.80
2018-07-29T22:52:20.994Z,25.80
2018-07-29T22:54:53.665Z,25.80
2018-07-29T22:57:26.328Z,25.70
2018-07-29T22:59:59.025Z,25.70
2018-07-29T23:02:31.704Z,25.70
2018-07-29T23:05:04.747Z,25.70
2018-07-29T23:07:37.421Z,25.70
2018-07-29T23:10:09.889Z,25.70
2018-07-29T23:12:42.309Z,25.70
2018-07-29T23:15:14.710Z,25.70
2018-07-29T23:17:47.109Z,25.60
2018-07-29T23:20:19.586Z,25.60
2018-07-29T23:22:52.210Z,25.60
2018-07-29T23:25:24.646Z,25.60
2018-07-29T23:27:57.037Z,25.60
2018-07-29T23:30:29.467Z,25.60
2018-07-29T23:33:01.910Z,25.60
2018-07-29T23:35:34.582Z,25.50
2018-07-29T23:38:06.981Z,25.50
2018-07-29T23:40:39.383Z,25.50
2018-07-29T23:43:12.065Z,25.50
2018-07-29T23:45:44.462Z,25.40
2018-07-29T23:48:17.105Z,25.40
2018-07-29T23:50:49.522Z,25.40
2018-07-29T23:53:21.929Z,25.40
2018-07-29T23:55:54.358Z,25.40
2018-07-29T23:58:26.750Z,25.40
